sensor_id;sensor_type;location;lat;lon;timestamp;P1;durP1;ratioP1;P2;durP2;ratioP2
22571;SDS011;11452;53.368;14.658;2023-04-24T00:01:24;4.50;;;3.47;;
22571;SDS011;11452;53.368;14.658;2023-04-24T00:06:30;5.13;;;3.67;;
22571;SDS011;11452;53.368;14.658;2023-04-24T00:11:38;4.33;;;3.30;;
22571;SDS011;11452;53.368;14.658;2023-04-24T00:16:43;5.03;;;4.00;;
22571;SDS011;11452;53.368;14.658;2023-04-24T00:21:49;5.20;;;3.50;;
22571;SDS011;11452;53.368;14.658;2023-04-24T00:26:55;4.80;;;3.10;;
22571;SDS011;11452;53.368;14.658;2023-04-24T00:32:01;4.83;;;3.63;;
22571;SDS011;11452;53.368;14.658;2023-04-24T00:37:08;3.40;;;3.10;;
22571;SDS011;11452;53.368;14.658;2023-04-24T00:42:15;5.20;;;3.77;;
22571;SDS011;11452;53.368;14.658;2023-04-24T00:47:20;4.23;;;3.83;;
22571;SDS011;11452;53.368;14.658;2023-04-24T00:52:27;4.43;;;4.03;;
22571;SDS011;11452;53.368;14.658;2023-04-24T00:57:34;5.40;;;3.80;;
22571;SDS011;11452;53.368;14.658;2023-04-24T01:02:39;4.23;;;3.83;;
22571;SDS011;11452;53.368;14.658;2023-04-24T01:07:48;4.43;;;3.73;;
22571;SDS011;11452;53.368;14.658;2023-04-24T01:12:53;4.90;;;3.47;;
22571;SDS011;11452;53.368;14.658;2023-04-24T01:18:00;6.03;;;3.87;;
22571;SDS011;11452;53.368;14.658;2023-04-24T01:23:06;3.93;;;3.53;;
22571;SDS011;11452;53.368;14.658;2023-04-24T01:28:13;4.93;;;4.23;;
22571;SDS011;11452;53.368;14.658;2023-04-24T01:33:20;5.70;;;3.70;;
22571;SDS011;11452;53.368;14.658;2023-04-24T01:38:26;4.83;;;3.63;;
22571;SDS011;11452;53.368;14.658;2023-04-24T01:43:31;4.30;;;3.70;;
22571;SDS011;11452;53.368;14.658;2023-04-24T01:48:37;8.07;;;4.47;;
22571;SDS011;11452;53.368;14.658;2023-04-24T01:53:43;5.33;;;4.57;;
22571;SDS011;11452;53.368;14.658;2023-04-24T01:58:49;5.23;;;4.27;;
22571;SDS011;11452;53.368;14.658;2023-04-24T02:03:56;4.87;;;4.20;;
22571;SDS011;11452;53.368;14.658;2023-04-24T02:09:02;5.77;;;4.60;;
22571;SDS011;11452;53.368;14.658;2023-04-24T02:14:07;5.07;;;4.37;;
22571;SDS011;11452;53.368;14.658;2023-04-24T02:19:15;4.73;;;4.33;;
22571;SDS011;11452;53.368;14.658;2023-04-24T02:24:20;5.17;;;4.30;;
22571;SDS011;11452;53.368;14.658;2023-04-24T02:29:26;5.40;;;4.90;;
22571;SDS011;11452;53.368;14.658;2023-04-24T02:34:31;6.30;;;4.77;;
22571;SDS011;11452;53.368;14.658;2023-04-24T02:39:37;7.17;;;6.00;;
22571;SDS011;11452;53.368;14.658;2023-04-24T02:44:43;6.70;;;6.00;;
22571;SDS011;11452;53.368;14.658;2023-04-24T02:49:48;7.20;;;6.03;;
22571;SDS011;11452;53.368;14.658;2023-04-24T02:54:54;6.77;;;5.30;;
22571;SDS011;11452;53.368;14.658;2023-04-24T02:59:59;8.50;;;6.03;;
22571;SDS011;11452;53.368;14.658;2023-04-24T03:05:05;5.30;;;4.80;;
22571;SDS011;11452;53.368;14.658;2023-04-24T03:10:11;5.93;;;5.33;;
22571;SDS011;11452;53.368;14.658;2023-04-24T03:15:17;5.73;;;5.07;;
22571;SDS011;11452;53.368;14.658;2023-04-24T03:20:22;5.43;;;4.93;;
22571;SDS011;11452;53.368;14.658;2023-04-24T03:25:30;5.17;;;4.67;;
22571;SDS011;11452;53.368;14.658;2023-04-24T03:30:36;4.87;;;4.37;;
22571;SDS011;11452;53.368;14.658;2023-04-24T03:35:42;5.17;;;4.67;;
22571;SDS011;11452;53.368;14.658;2023-04-24T03:40:48;5.30;;;4.80;;
22571;SDS011;11452;53.368;14.658;2023-04-24T03:45:58;5.20;;;4.63;;
22571;SDS011;11452;53.368;14.658;2023-04-24T03:51:06;6.57;;;5.40;;
22571;SDS011;11452;53.368;14.658;2023-04-24T03:56:12;7.10;;;6.00;;
22571;SDS011;11452;53.368;14.658;2023-04-24T04:01:18;6.73;;;6.03;;
22571;SDS011;11452;53.368;14.658;2023-04-24T04:06:26;7.10;;;6.40;;
22571;SDS011;11452;53.368;14.658;2023-04-24T04:11:33;7.67;;;6.87;;
22571;SDS011;11452;53.368;14.658;2023-04-24T04:16:39;7.77;;;6.93;;
22571;SDS011;11452;53.368;14.658;2023-04-24T04:21:46;7.57;;;6.87;;
22571;SDS011;11452;53.368;14.658;2023-04-24T04:26:54;10.23;;;7.80;;
22571;SDS011;11452;53.368;14.658;2023-04-24T04:32:06;9.00;;;8.10;;
22571;SDS011;11452;53.368;14.658;2023-04-24T04:37:12;9.87;;;8.00;;
22571;SDS011;11452;53.368;14.658;2023-04-24T04:42:25;8.47;;;7.77;;
22571;SDS011;11452;53.368;14.658;2023-04-24T04:47:32;9.43;;;8.47;;
22571;SDS011;11452;53.368;14.658;2023-04-24T04:52:38;9.07;;;8.17;;
22571;SDS011;11452;53.368;14.658;2023-04-24T04:57:45;8.93;;;8.00;;
22571;SDS011;11452;53.368;14.658;2023-04-24T05:02:51;8.30;;;7.40;;
22571;SDS011;11452;53.368;14.658;2023-04-24T05:07:59;10.07;;;7.40;;
22571;SDS011;11452;53.368;14.658;2023-04-24T05:13:04;8.93;;;8.03;;
22571;SDS011;11452;53.368;14.658;2023-04-24T05:18:11;8.63;;;7.73;;
22571;SDS011;11452;53.368;14.658;2023-04-24T05:23:17;9.43;;;8.43;;
22571;SDS011;11452;53.368;14.658;2023-04-24T05:28:24;7.87;;;7.17;;
22571;SDS011;11452;53.368;14.658;2023-04-24T05:33:33;8.67;;;7.20;;
22571;SDS011;11452;53.368;14.658;2023-04-24T05:38:39;7.77;;;7.07;;
22571;SDS011;11452;53.368;14.658;2023-04-24T05:43:44;7.73;;;6.40;;
22571;SDS011;11452;53.368;14.658;2023-04-24T05:48:50;8.43;;;6.53;;
22571;SDS011;11452;53.368;14.658;2023-04-24T05:53:56;7.33;;;6.63;;
22571;SDS011;11452;53.368;14.658;2023-04-24T05:59:01;6.57;;;5.80;;
22571;SDS011;11452;53.368;14.658;2023-04-24T06:04:07;9.37;;;6.33;;
22571;SDS011;11452;53.368;14.658;2023-04-24T06:09:13;7.07;;;6.37;;
22571;SDS011;11452;53.368;14.658;2023-04-24T06:14:20;6.70;;;6.10;;
22571;SDS011;11452;53.368;14.658;2023-04-24T06:19:40;7.77;;;6.97;;
22571;SDS011;11452;53.368;14.658;2023-04-24T06:24:46;6.47;;;5.87;;
22571;SDS011;11452;53.368;14.658;2023-04-24T06:29:53;7.03;;;5.60;;
22571;SDS011;11452;53.368;14.658;2023-04-24T06:34:59;6.70;;;6.10;;
22571;SDS011;11452;53.368;14.658;2023-04-24T06:40:05;7.83;;;7.03;;
22571;SDS011;11452;53.368;14.658;2023-04-24T06:45:11;6.90;;;6.30;;
22571;SDS011;11452;53.368;14.658;2023-04-24T06:50:16;7.03;;;6.33;;
22571;SDS011;11452;53.368;14.658;2023-04-24T06:55:22;8.50;;;7.27;;
22571;SDS011;11452;53.368;14.658;2023-04-24T07:00:28;6.20;;;5.47;;
22571;SDS011;11452;53.368;14.658;2023-04-24T07:05:33;6.00;;;5.40;;
22571;SDS011;11452;53.368;14.658;2023-04-24T07:10:40;5.40;;;4.90;;
22571;SDS011;11452;53.368;14.658;2023-04-24T07:15:46;5.50;;;4.63;;
22571;SDS011;11452;53.368;14.658;2023-04-24T07:20:53;6.30;;;5.30;;
22571;SDS011;11452;53.368;14.658;2023-04-24T07:25:59;5.63;;;4.50;;
22571;SDS011;11452;53.368;14.658;2023-04-24T07:31:06;5.73;;;5.23;;
22571;SDS011;11452;53.368;14.658;2023-04-24T07:36:12;5.63;;;4.90;;
22571;SDS011;11452;53.368;14.658;2023-04-24T07:41:22;5.10;;;4.70;;
22571;SDS011;11452;53.368;14.658;2023-04-24T07:46:29;5.57;;;4.17;;
22571;SDS011;11452;53.368;14.658;2023-04-24T07:51:35;3.90;;;3.57;;
22571;SDS011;11452;53.368;14.658;2023-04-24T07:56:42;4.70;;;4.10;;
22571;SDS011;11452;53.368;14.658;2023-04-24T08:01:48;4.30;;;3.93;;
22571;SDS011;11452;53.368;14.658;2023-04-24T08:06:54;4.07;;;3.67;;
22571;SDS011;11452;53.368;14.658;2023-04-24T08:12:00;4.10;;;3.60;;
22571;SDS011;11452;53.368;14.658;2023-04-24T08:17:06;4.57;;;4.17;;
22571;SDS011;11452;53.368;14.658;2023-04-24T08:22:11;3.13;;;2.83;;
22571;SDS011;11452;53.368;14.658;2023-04-24T08:27:17;3.77;;;2.90;;
22571;SDS011;11452;53.368;14.658;2023-04-24T08:32:23;3.00;;;2.80;;
22571;SDS011;11452;53.368;14.658;2023-04-24T08:37:28;3.43;;;3.00;;
22571;SDS011;11452;53.368;14.658;2023-04-24T08:42:34;4.37;;;4.07;;
22571;SDS011;11452;53.368;14.658;2023-04-24T08:47:41;3.90;;;3.60;;
22571;SDS011;11452;53.368;14.658;2023-04-24T08:52:54;4.07;;;3.60;;
22571;SDS011;11452;53.368;14.658;2023-04-24T08:57:57;3.57;;;3.27;;
22571;SDS011;11452;53.368;14.658;2023-04-24T09:03:05;2.83;;;2.53;;
22571;SDS011;11452;53.368;14.658;2023-04-24T09:08:12;4.93;;;3.57;;
22571;SDS011;11452;53.368;14.658;2023-04-24T09:13:19;3.73;;;3.27;;
22571;SDS011;11452;53.368;14.658;2023-04-24T09:18:25;4.27;;;3.83;;
22571;SDS011;11452;53.368;14.658;2023-04-24T09:23:31;4.57;;;4.17;;
22571;SDS011;11452;53.368;14.658;2023-04-24T09:28:38;5.93;;;4.50;;
22571;SDS011;11452;53.368;14.658;2023-04-24T09:39:12;5.43;;;4.93;;
22571;SDS011;11452;53.368;14.658;2023-04-24T09:44:24;3.17;;;2.97;;
22571;SDS011;11452;53.368;14.658;2023-04-24T09:49:31;3.50;;;3.20;;
22571;SDS011;11452;53.368;14.658;2023-04-24T09:54:39;3.67;;;3.00;;
22571;SDS011;11452;53.368;14.658;2023-04-24T09:59:45;3.70;;;3.50;;
22571;SDS011;11452;53.368;14.658;2023-04-24T10:04:54;3.00;;;2.80;;
22571;SDS011;11452;53.368;14.658;2023-04-24T10:10:04;3.40;;;3.10;;
22571;SDS011;11452;53.368;14.658;2023-04-24T10:15:11;4.67;;;3.87;;
22571;SDS011;11452;53.368;14.658;2023-04-24T10:20:23;3.17;;;2.97;;
22571;SDS011;11452;53.368;14.658;2023-04-24T10:25:30;4.40;;;4.00;;
22571;SDS011;11452;53.368;14.658;2023-04-24T10:30:37;4.20;;;3.90;;
22571;SDS011;11452;53.368;14.658;2023-04-24T10:35:47;4.00;;;3.70;;
22571;SDS011;11452;53.368;14.658;2023-04-24T10:41:13;4.90;;;4.40;;
22571;SDS011;11452;53.368;14.658;2023-04-24T10:46:21;5.03;;;4.50;;
22571;SDS011;11452;53.368;14.658;2023-04-24T10:51:44;5.00;;;4.60;;
22571;SDS011;11452;53.368;14.658;2023-04-24T10:56:52;5.83;;;5.33;;
22571;SDS011;11452;53.368;14.658;2023-04-24T11:02:00;4.77;;;4.47;;
22571;SDS011;11452;53.368;14.658;2023-04-24T11:07:06;4.70;;;4.40;;
22571;SDS011;11452;53.368;14.658;2023-04-24T11:12:13;4.13;;;3.83;;
22571;SDS011;11452;53.368;14.658;2023-04-24T11:17:36;4.27;;;3.97;;
22571;SDS011;11452;53.368;14.658;2023-04-24T11:22:41;3.43;;;3.23;;
22571;SDS011;11452;53.368;14.658;2023-04-24T11:27:46;2.60;;;2.40;;
22571;SDS011;11452;53.368;14.658;2023-04-24T11:32:53;2.30;;;2.10;;
22571;SDS011;11452;53.368;14.658;2023-04-24T11:37:59;2.03;;;1.93;;
22571;SDS011;11452;53.368;14.658;2023-04-24T11:43:08;1.67;;;1.57;;
22571;SDS011;11452;53.368;14.658;2023-04-24T11:48:18;2.40;;;1.50;;
22571;SDS011;11452;53.368;14.658;2023-04-24T11:53:26;1.60;;;1.50;;
22571;SDS011;11452;53.368;14.658;2023-04-24T11:58:35;2.70;;;2.10;;
22571;SDS011;11452;53.368;14.658;2023-04-24T12:03:46;1.83;;;1.60;;
22571;SDS011;11452;53.368;14.658;2023-04-24T12:08:55;3.47;;;2.00;;
22571;SDS011;11452;53.368;14.658;2023-04-24T12:14:10;2.53;;;2.00;;
22571;SDS011;11452;53.368;14.658;2023-04-24T12:19:22;2.10;;;1.60;;
22571;SDS011;11452;53.368;14.658;2023-04-24T12:24:29;1.20;;;1.10;;
22571;SDS011;11452;53.368;14.658;2023-04-24T12:29:35;1.20;;;1.10;;
22571;SDS011;11452;53.368;14.658;2023-04-24T12:34:40;1.07;;;1.00;;
22571;SDS011;11452;53.368;14.658;2023-04-24T12:45:12;1.50;;;1.40;;
22571;SDS011;11452;53.368;14.658;2023-04-24T12:50:18;1.70;;;1.53;;
22571;SDS011;11452;53.368;14.658;2023-04-24T12:55:25;2.20;;;1.10;;
22571;SDS011;11452;53.368;14.658;2023-04-24T13:00:31;1.70;;;1.60;;
22571;SDS011;11452;53.368;14.658;2023-04-24T13:05:37;1.43;;;1.33;;
22571;SDS011;11452;53.368;14.658;2023-04-24T13:10:43;1.97;;;0.83;;
22571;SDS011;11452;53.368;14.658;2023-04-24T13:21:21;0.70;;;0.70;;
22571;SDS011;11452;53.368;14.658;2023-04-24T13:26:27;0.83;;;0.70;;
22571;SDS011;11452;53.368;14.658;2023-04-24T13:31:32;1.90;;;0.60;;
22571;SDS011;11452;53.368;14.658;2023-04-24T13:36:38;0.53;;;0.50;;
22571;SDS011;11452;53.368;14.658;2023-04-24T13:41:44;0.87;;;0.60;;
22571;SDS011;11452;53.368;14.658;2023-04-24T13:46:52;0.43;;;0.43;;
22571;SDS011;11452;53.368;14.658;2023-04-24T13:52:01;1.77;;;0.67;;
22571;SDS011;11452;53.368;14.658;2023-04-24T13:57:07;0.90;;;0.87;;
22571;SDS011;11452;53.368;14.658;2023-04-24T14:02:12;1.23;;;0.53;;
22571;SDS011;11452;53.368;14.658;2023-04-24T14:07:18;0.50;;;0.50;;
22571;SDS011;11452;53.368;14.658;2023-04-24T14:12:24;0.60;;;0.50;;
22571;SDS011;11452;53.368;14.658;2023-04-24T14:17:30;4.23;;;0.70;;
22571;SDS011;11452;53.368;14.658;2023-04-24T14:22:36;1.20;;;0.97;;
22571;SDS011;11452;53.368;14.658;2023-04-24T14:27:41;0.80;;;0.80;;
22571;SDS011;11452;53.368;14.658;2023-04-24T14:32:47;1.60;;;0.80;;
22571;SDS011;11452;53.368;14.658;2023-04-24T14:37:54;0.70;;;0.60;;
22571;SDS011;11452;53.368;14.658;2023-04-24T14:42:59;1.13;;;0.80;;
22571;SDS011;11452;53.368;14.658;2023-04-24T14:48:05;0.80;;;0.73;;
22571;SDS011;11452;53.368;14.658;2023-04-24T14:53:11;1.90;;;0.70;;
22571;SDS011;11452;53.368;14.658;2023-04-24T14:58:17;0.80;;;0.50;;
22571;SDS011;11452;53.368;14.658;2023-04-24T15:03:23;0.83;;;0.80;;
22571;SDS011;11452;53.368;14.658;2023-04-24T15:08:31;1.90;;;1.00;;
22571;SDS011;11452;53.368;14.658;2023-04-24T15:13:37;1.60;;;0.90;;
22571;SDS011;11452;53.368;14.658;2023-04-24T15:18:43;1.07;;;0.80;;
22571;SDS011;11452;53.368;14.658;2023-04-24T15:23:49;1.10;;;1.00;;
22571;SDS011;11452;53.368;14.658;2023-04-24T15:28:54;1.10;;;1.00;;
22571;SDS011;11452;53.368;14.658;2023-04-24T15:34:00;1.67;;;0.77;;
22571;SDS011;11452;53.368;14.658;2023-04-24T15:39:06;1.57;;;0.60;;
22571;SDS011;11452;53.368;14.658;2023-04-24T15:44:13;3.00;;;0.67;;
22571;SDS011;11452;53.368;14.658;2023-04-24T15:49:19;0.67;;;0.60;;
22571;SDS011;11452;53.368;14.658;2023-04-24T15:54:24;0.93;;;0.40;;
22571;SDS011;11452;53.368;14.658;2023-04-24T15:59:31;0.60;;;0.60;;
22571;SDS011;11452;53.368;14.658;2023-04-24T16:04:36;0.60;;;0.57;;
22571;SDS011;11452;53.368;14.658;2023-04-24T16:09:42;0.90;;;0.90;;
22571;SDS011;11452;53.368;14.658;2023-04-24T16:14:48;0.73;;;0.60;;
22571;SDS011;11452;53.368;14.658;2023-04-24T16:19:54;0.90;;;0.70;;
22571;SDS011;11452;53.368;14.658;2023-04-24T16:24:59;0.70;;;0.70;;
22571;SDS011;11452;53.368;14.658;2023-04-24T16:30:05;1.20;;;1.00;;
22571;SDS011;11452;53.368;14.658;2023-04-24T16:35:12;1.43;;;0.80;;
22571;SDS011;11452;53.368;14.658;2023-04-24T16:40:17;1.03;;;1.00;;
22571;SDS011;11452;53.368;14.658;2023-04-24T16:45:23;2.00;;;1.00;;
22571;SDS011;11452;53.368;14.658;2023-04-24T16:50:29;1.00;;;0.90;;
22571;SDS011;11452;53.368;14.658;2023-04-24T16:55:34;1.10;;;0.90;;
22571;SDS011;11452;53.368;14.658;2023-04-24T17:00:40;1.30;;;1.20;;
22571;SDS011;11452;53.368;14.658;2023-04-24T17:05:45;1.97;;;1.30;;
22571;SDS011;11452;53.368;14.658;2023-04-24T17:10:51;1.33;;;1.00;;
22571;SDS011;11452;53.368;14.658;2023-04-24T17:15:57;2.07;;;0.93;;
22571;SDS011;11452;53.368;14.658;2023-04-24T17:21:02;2.90;;;1.57;;
22571;SDS011;11452;53.368;14.658;2023-04-24T17:26:08;1.10;;;1.00;;
22571;SDS011;11452;53.368;14.658;2023-04-24T17:31:15;1.37;;;1.27;;
22571;SDS011;11452;53.368;14.658;2023-04-24T17:36:20;4.20;;;1.10;;
22571;SDS011;11452;53.368;14.658;2023-04-24T17:41:26;0.90;;;0.90;;
22571;SDS011;11452;53.368;14.658;2023-04-24T17:46:31;1.23;;;1.03;;
22571;SDS011;11452;53.368;14.658;2023-04-24T17:51:38;1.50;;;1.40;;
22571;SDS011;11452;53.368;14.658;2023-04-24T17:56:44;1.30;;;1.20;;
22571;SDS011;11452;53.368;14.658;2023-04-24T18:01:50;4.00;;;1.40;;
22571;SDS011;11452;53.368;14.658;2023-04-24T18:06:56;2.37;;;1.27;;
22571;SDS011;11452;53.368;14.658;2023-04-24T18:12:01;5.57;;;4.90;;
22571;SDS011;11452;53.368;14.658;2023-04-24T18:17:08;2.03;;;1.70;;
22571;SDS011;11452;53.368;14.658;2023-04-24T18:22:14;1.33;;;1.23;;
22571;SDS011;11452;53.368;14.658;2023-04-24T18:27:19;1.57;;;1.47;;
22571;SDS011;11452;53.368;14.658;2023-04-24T18:32:26;1.33;;;1.20;;
22571;SDS011;11452;53.368;14.658;2023-04-24T18:37:32;2.37;;;1.30;;
22571;SDS011;11452;53.368;14.658;2023-04-24T18:42:38;1.43;;;1.33;;
22571;SDS011;11452;53.368;14.658;2023-04-24T18:47:44;1.77;;;1.33;;
22571;SDS011;11452;53.368;14.658;2023-04-24T18:52:49;1.67;;;1.50;;
22571;SDS011;11452;53.368;14.658;2023-04-24T18:57:55;1.87;;;1.77;;
22571;SDS011;11452;53.368;14.658;2023-04-24T19:03:01;3.13;;;1.77;;
22571;SDS011;11452;53.368;14.658;2023-04-24T19:08:07;2.70;;;1.63;;
22571;SDS011;11452;53.368;14.658;2023-04-24T19:13:12;2.70;;;1.63;;
22571;SDS011;11452;53.368;14.658;2023-04-24T19:18:18;1.30;;;1.20;;
22571;SDS011;11452;53.368;14.658;2023-04-24T19:23:26;1.53;;;1.43;;
22571;SDS011;11452;53.368;14.658;2023-04-24T19:28:33;2.23;;;1.30;;
22571;SDS011;11452;53.368;14.658;2023-04-24T19:33:40;1.47;;;1.27;;
22571;SDS011;11452;53.368;14.658;2023-04-24T19:38:46;2.23;;;2.13;;
22571;SDS011;11452;53.368;14.658;2023-04-24T19:43:53;1.37;;;1.27;;
22571;SDS011;11452;53.368;14.658;2023-04-24T19:48:59;1.37;;;1.03;;
22571;SDS011;11452;53.368;14.658;2023-04-24T19:54:04;3.50;;;1.90;;
22571;SDS011;11452;53.368;14.658;2023-04-24T19:59:10;2.63;;;1.70;;
22571;SDS011;11452;53.368;14.658;2023-04-24T20:04:15;1.80;;;1.33;;
22571;SDS011;11452;53.368;14.658;2023-04-24T20:09:23;2.03;;;1.60;;
22571;SDS011;11452;53.368;14.658;2023-04-24T20:14:28;1.57;;;1.47;;
22571;SDS011;11452;53.368;14.658;2023-04-24T20:19:34;1.60;;;1.50;;
22571;SDS011;11452;53.368;14.658;2023-04-24T20:24:40;2.57;;;1.90;;
22571;SDS011;11452;53.368;14.658;2023-04-24T20:29:46;2.10;;;1.47;;
22571;SDS011;11452;53.368;14.658;2023-04-24T20:34:52;3.73;;;1.83;;
22571;SDS011;11452;53.368;14.658;2023-04-24T20:39:57;1.40;;;1.30;;
22571;SDS011;11452;53.368;14.658;2023-04-24T20:45:05;0.90;;;0.90;;
22571;SDS011;11452;53.368;14.658;2023-04-24T20:50:11;1.50;;;0.90;;
22571;SDS011;11452;53.368;14.658;2023-04-24T20:55:17;0.87;;;0.87;;
22571;SDS011;11452;53.368;14.658;2023-04-24T21:00:22;1.30;;;0.67;;
22571;SDS011;11452;53.368;14.658;2023-04-24T21:05:30;0.90;;;0.70;;
22571;SDS011;11452;53.368;14.658;2023-04-24T21:10:36;0.67;;;0.50;;
22571;SDS011;11452;53.368;14.658;2023-04-24T21:15:41;0.50;;;0.50;;
22571;SDS011;11452;53.368;14.658;2023-04-24T21:20:47;0.63;;;0.60;;
22571;SDS011;11452;53.368;14.658;2023-04-24T21:25:55;0.40;;;0.40;;
22571;SDS011;11452;53.368;14.658;2023-04-24T21:31:01;0.63;;;0.30;;
22571;SDS011;11452;53.368;14.658;2023-04-24T21:36:07;1.10;;;0.50;;
22571;SDS011;11452;53.368;14.658;2023-04-24T21:41:13;0.93;;;0.30;;
22571;SDS011;11452;53.368;14.658;2023-04-24T21:46:18;0.63;;;0.60;;
22571;SDS011;11452;53.368;14.658;2023-04-24T21:51:24;0.50;;;0.50;;
22571;SDS011;11452;53.368;14.658;2023-04-24T21:56:31;0.37;;;0.30;;
22571;SDS011;11452;53.368;14.658;2023-04-24T22:01:37;0.47;;;0.47;;
22571;SDS011;11452;53.368;14.658;2023-04-24T22:06:42;0.77;;;0.40;;
22571;SDS011;11452;53.368;14.658;2023-04-24T22:11:48;0.40;;;0.40;;
22571;SDS011;11452;53.368;14.658;2023-04-24T22:16:54;0.40;;;0.40;;
22571;SDS011;11452;53.368;14.658;2023-04-24T22:22:00;0.60;;;0.50;;
22571;SDS011;11452;53.368;14.658;2023-04-24T22:27:06;1.03;;;0.47;;
22571;SDS011;11452;53.368;14.658;2023-04-24T22:32:11;0.60;;;0.60;;
22571;SDS011;11452;53.368;14.658;2023-04-24T22:37:17;0.50;;;0.50;;
22571;SDS011;11452;53.368;14.658;2023-04-24T22:42:22;1.10;;;1.00;;
22571;SDS011;11452;53.368;14.658;2023-04-24T22:47:28;1.57;;;0.70;;
22571;SDS011;11452;53.368;14.658;2023-04-24T22:52:35;0.90;;;0.90;;
22571;SDS011;11452;53.368;14.658;2023-04-24T22:57:40;1.00;;;0.90;;
22571;SDS011;11452;53.368;14.658;2023-04-24T23:02:47;0.90;;;0.90;;
22571;SDS011;11452;53.368;14.658;2023-04-24T23:07:52;1.13;;;0.90;;
22571;SDS011;11452;53.368;14.658;2023-04-24T23:12:58;1.00;;;0.60;;
22571;SDS011;11452;53.368;14.658;2023-04-24T23:18:03;1.83;;;1.00;;
22571;SDS011;11452;53.368;14.658;2023-04-24T23:23:09;1.30;;;1.20;;
22571;SDS011;11452;53.368;14.658;2023-04-24T23:28:16;1.00;;;1.00;;
22571;SDS011;11452;53.368;14.658;2023-04-24T23:33:21;0.80;;;0.80;;
22571;SDS011;11452;53.368;14.658;2023-04-24T23:38:27;1.10;;;1.00;;
22571;SDS011;11452;53.368;14.658;2023-04-24T23:43:35;1.27;;;1.10;;
22571;SDS011;11452;53.368;14.658;2023-04-24T23:48:41;1.37;;;1.07;;
22571;SDS011;11452;53.368;14.658;2023-04-24T23:53:46;1.23;;;1.17;;
22571;SDS011;11452;53.368;14.658;2023-04-24T23:58:53;1.63;;;1.40;;
